Time;durP1;ratioP1;P1;durP2;ratioP2;P2;SDS_P1;SDS_P2;PMS_P1;PMS_P2;Temp;Humidity;BMP_temperature;BMP_pressure;BME280_temperature;BME280_humidity;BME280_pressure;Samples;Min_cycle;Max_cycle;Signal;HPM_P1;HPM_P2
2023/04/08 05:03:06;;;;;;;28.35;15.68;;;7.00;99.90;;;;;;5201872;23;20050;-74
2023/04/08 05:05:33;;;;;;;30.85;16.15;;;6.90;99.90;;;;;;4932650;29;20312;-73
2023/04/08 05:07:59;;;;;;;29.48;16.73;;;6.80;99.90;;;;;;4946863;29;20031;-74
2023/04/08 05:10:26;;;;;;;28.75;16.15;;;6.90;99.90;;;;;;4944430;29;20020;-73
2023/04/08 05:12:55;;;;;;;32.45;16.25;;;6.90;99.90;;;;;;4944024;29;20034;-73
2023/04/08 05:15:34;;;;;;;31.05;16.70;;;6.80;99.90;;;;;;4944362;29;20084;-73
2023/04/08 05:18:03;;;;;;;28.52;15.75;;;6.80;99.90;;;;;;4944974;29;20027;-73
2023/04/08 05:20:34;;;;;;;33.83;17.42;;;6.80;99.90;;;;;;4964204;28;20380;-73
2023/04/08 05:23:03;;;;;;;32.90;17.30;;;6.70;99.90;;;;;;4963818;28;20039;-73
2023/04/08 05:25:29;;;;;;;33.28;17.60;;;6.80;99.90;;;;;;4963087;29;20063;-75
2023/04/08 05:28:20;;;;;;;30.63;17.20;;;6.80;99.90;;;;;;4964252;28;20368;-72
2023/04/08 05:30:53;;;;;;;32.88;17.77;;;6.80;99.90;;;;;;4963816;29;20078;-73
2023/04/08 05:33:34;;;;;;;30.88;17.85;;;6.80;99.90;;;;;;4963406;28;20046;-74
2023/04/08 05:35:59;;;;;;;28.67;17.17;;;6.80;99.90;;;;;;4937631;29;20035;-74
2023/04/08 05:38:26;;;;;;;34.17;17.52;;;6.90;99.90;;;;;;4943432;29;20032;-74
2023/04/08 05:41:21;;;;;;;33.92;18.45;;;6.90;99.90;;;;;;4944387;29;20062;-73
2023/04/08 05:43:53;;;;;;;30.00;16.67;;;7.10;99.90;;;;;;4937562;29;20153;-75
2023/04/08 05:46:20;;;;;;;32.20;16.50;;;7.20;99.90;;;;;;4943104;29;20051;-74
2023/04/08 05:49:18;;;;;;;27.52;16.60;;;7.30;99.90;;;;;;4927480;29;20265;-73
2023/04/08 05:51:47;;;;;;;27.05;15.68;;;7.40;99.90;;;;;;4928219;29;20050;-73
2023/04/08 05:54:31;;;;;;;27.48;15.98;;;7.50;99.90;;;;;;4944417;29;20055;-74
2023/04/08 05:57:03;;;;;;;25.05;15.07;;;7.60;99.90;;;;;;4944509;29;20195;-73
2023/04/08 05:59:28;;;;;;;28.50;15.63;;;7.60;99.90;;;;;;4944813;29;20091;-74
2023/04/08 06:01:55;;;;;;;25.98;15.70;;;7.70;99.90;;;;;;4944242;29;20211;-74
2023/04/08 06:04:22;;;;;;;24.65;15.35;;;7.80;99.90;;;;;;4945264;29;20228;-74
2023/04/08 06:07:03;;;;;;;27.73;15.45;;;7.80;99.90;;;;;;4963632;28;20051;-73
2023/04/08 06:09:39;;;;;;;25.02;14.73;;;7.90;99.90;;;;;;4946782;29;20030;-75
2023/04/08 06:12:11;;;;;;;25.73;14.88;;;7.90;99.90;;;;;;4963644;29;20043;-74
2023/04/08 06:14:37;;;;;;;25.13;15.40;;;7.90;99.90;;;;;;4964751;28;20027;-73
2023/04/08 06:17:03;;;;;;;23.52;14.80;;;7.90;99.90;;;;;;4967164;28;20326;-74
2023/04/08 06:19:34;;;;;;;26.00;15.70;;;8.00;99.90;;;;;;4967156;28;20031;-74
2023/04/08 06:22:06;;;;;;;26.17;15.70;;;8.00;99.90;;;;;;4966140;29;20059;-74
2023/04/08 06:24:32;;;;;;;25.80;15.38;;;8.00;99.90;;;;;;4949949;29;20035;-74
2023/04/08 06:26:58;;;;;;;22.85;14.23;;;8.10;99.90;;;;;;4965840;29;20023;-73
2023/04/08 06:29:28;;;;;;;24.30;14.68;;;8.10;99.90;;;;;;4965232;29;20035;-73
2023/04/08 06:31:54;;;;;;;23.17;13.85;;;8.20;99.90;;;;;;4966777;28;20042;-72
2023/04/08 06:34:20;;;;;;;23.23;14.23;;;8.30;99.90;;;;;;4966722;28;20030;-75
2023/04/08 06:37:07;;;;;;;22.15;13.68;;;8.40;99.90;;;;;;4959061;29;20031;-72
2023/04/08 06:39:43;;;;;;;23.25;14.35;;;8.40;99.90;;;;;;4946817;29;20024;-73
2023/04/08 06:42:23;;;;;;;22.27;13.77;;;8.50;99.90;;;;;;4945599;29;20059;-73
2023/04/08 06:45:18;;;;;;;21.23;13.25;;;8.50;99.90;;;;;;4936903;29;20059;-74
2023/04/08 06:48:08;;;;;;;20.70;13.48;;;8.60;99.90;;;;;;4947515;29;20031;-72
2023/04/08 06:51:02;;;;;;;20.08;13.23;;;8.70;99.90;;;;;;4946893;29;20122;-73
2023/04/08 06:53:37;;;;;;;21.23;12.55;;;8.60;99.90;;;;;;4946723;29;20489;-73
2023/04/08 06:56:04;;;;;;;20.20;12.10;;;8.70;99.90;;;;;;4946166;29;20123;-73
2023/04/08 06:58:31;;;;;;;19.27;12.40;;;8.70;99.90;;;;;;4946179;29;20067;-74
2023/04/08 07:01:09;;;;;;;20.55;13.40;;;8.70;99.90;;;;;;4947146;29;20248;-72
2023/04/08 07:03:35;;;;;;;19.27;12.35;;;8.80;99.90;;;;;;4953285;29;20316;-74
2023/04/08 07:06:03;;;;;;;18.35;12.93;;;8.90;99.90;;;;;;4945175;29;20035;-73
2023/04/08 07:08:41;;;;;;;19.52;12.48;;;8.90;99.90;;;;;;4930102;29;20043;-72
2023/04/08 07:11:07;;;;;;;21.10;13.13;;;8.90;99.90;;;;;;4946767;29;20044;-72
2023/04/08 07:13:57;;;;;;;20.10;11.93;;;8.90;99.90;;;;;;4946057;29;20058;-74
2023/04/08 07:16:25;;;;;;;18.20;11.45;;;9.00;99.90;;;;;;4961281;29;20061;-74
2023/04/08 07:18:51;;;;;;;;;;;9.10;99.90;;;;;;4947327;29;20055;-72
2023/04/08 07:21:20;;;;;;;18.58;11.23;;;9.20;99.90;;;;;;4946589;29;19954;-74
2023/04/08 07:24:04;;;;;;;17.58;11.05;;;9.40;99.90;;;;;;4961855;29;20028;-73
2023/04/08 07:26:32;;;;;;;15.35;10.18;;;9.40;99.90;;;;;;4945447;29;20070;-73
2023/04/08 07:28:59;;;;;;;;;;;9.60;99.90;;;;;;4947215;29;20031;-73
2023/04/08 07:32:09;;;;;;;17.08;11.07;;;9.70;99.90;;;;;;4946088;29;19930;-73
2023/04/08 07:34:41;;;;;;;15.98;10.13;;;9.90;99.90;;;;;;4945414;29;20166;-73
2023/04/08 07:37:39;;;;;;;16.38;10.48;;;10.20;99.90;;;;;;4946236;29;20031;-72
2023/04/08 07:40:11;;;;;;;13.60;9.25;;;10.30;99.90;;;;;;4918018;29;20035;-74
2023/04/08 07:42:36;;;;;;;14.32;9.88;;;10.40;99.90;;;;;;4929221;29;20028;-72
2023/04/08 07:45:08;;;;;;;14.15;9.43;;;10.40;99.90;;;;;;4946238;29;20077;-73
2023/04/08 07:47:37;;;;;;;14.68;9.85;;;10.50;99.90;;;;;;4946567;29;20339;-73
2023/04/08 07:50:04;;;;;;;14.93;9.77;;;10.70;99.90;;;;;;4946007;29;20028;-73
2023/04/08 07:52:33;;;;;;;14.50;9.30;;;10.70;99.90;;;;;;4944818;29;20225;-72
2023/04/08 07:55:11;;;;;;;14.65;9.55;;;10.80;99.90;;;;;;4945058;29;20068;-73
2023/04/08 07:57:48;;;;;;;12.90;8.98;;;10.90;99.90;;;;;;4946161;29;20051;-73
2023/04/08 08:00:20;;;;;;;14.75;9.68;;;10.90;99.90;;;;;;4945149;29;20059;-73
2023/04/08 08:02:55;;;;;;;13.77;9.70;;;10.90;99.90;;;;;;4948678;29;20046;-75
2023/04/08 08:05:22;;;;;;;13.30;9.15;;;10.90;99.90;;;;;;4964959;28;20038;-73
2023/04/08 08:07:51;;;;;;;13.18;8.95;;;11.00;99.90;;;;;;4964088;29;20098;-74
2023/04/08 08:10:17;;;;;;;13.95;9.65;;;11.20;99.90;;;;;;4964768;29;20027;-73
2023/04/08 08:12:45;;;;;;;13.98;9.00;;;11.30;99.90;;;;;;4964110;29;20089;-73
2023/04/08 08:15:29;;;;;;;13.13;9.50;;;11.30;99.90;;;;;;4964589;29;20123;-73
2023/04/08 08:17:55;;;;;;;14.27;9.63;;;11.30;99.90;;;;;;4964265;29;20261;-73
2023/04/08 08:20:21;;;;;;;13.38;9.43;;;11.20;99.90;;;;;;4964340;29;20039;-71
2023/04/08 08:22:50;;;;;;;12.43;9.05;;;11.20;99.90;;;;;;4882378;28;20432;-72
2023/04/08 08:25:21;;;;;;;11.57;9.35;;;11.30;99.90;;;;;;4931467;29;20114;-73
2023/04/08 08:27:47;;;;;;;14.75;10.30;;;11.50;99.90;;;;;;4945959;29;20385;-71
2023/04/08 08:30:21;;;;;;;13.95;8.90;;;11.60;99.90;;;;;;4945114;29;20024;-75
2023/04/08 08:32:50;;;;;;;12.32;9.30;;;11.70;99.90;;;;;;4946075;29;20052;-73
2023/04/08 08:35:18;;;;;;;13.45;8.93;;;11.80;99.90;;;;;;4944093;29;20058;-74
2023/04/08 08:37:47;;;;;;;12.30;9.10;;;11.90;99.90;;;;;;4945146;29;20091;-74
2023/04/08 08:40:17;;;;;;;12.55;9.02;;;12.00;99.90;;;;;;4927905;29;20063;-73
2023/04/08 08:42:51;;;;;;;12.50;9.07;;;12.10;99.90;;;;;;4944519;29;20222;-73
2023/04/08 08:45:20;;;;;;;13.65;9.23;;;12.10;99.90;;;;;;4944979;29;20032;-73
2023/04/08 08:47:56;;;;;;;11.70;9.07;;;12.00;99.90;;;;;;4945544;29;20032;-72
2023/04/08 08:50:25;;;;;;;12.40;9.32;;;12.20;99.90;;;;;;4945090;29;20031;-72
2023/04/08 08:52:54;;;;;;;13.65;9.32;;;12.20;99.90;;;;;;4945509;29;20036;-73
2023/04/08 08:55:34;;;;;;;14.38;9.10;;;12.10;99.90;;;;;;4945168;29;20032;-72
2023/04/08 08:58:29;;;;;;;12.48;8.48;;;12.50;99.90;;;;;;4945318;29;20082;-73
2023/04/08 09:01:00;;;;;;;12.80;9.23;;;12.80;99.10;;;;;;4938072;29;20082;-73
2023/04/08 09:03:27;;;;;;;12.35;8.98;;;12.80;98.80;;;;;;4944499;29;20052;-71
2023/04/08 09:06:04;;;;;;;10.77;8.73;;;12.90;98.50;;;;;;4945268;29;20055;-73
2023/04/08 09:08:51;;;;;;;12.70;8.77;;;13.00;97.50;;;;;;4927811;29;20032;-73
2023/04/08 09:11:22;;;;;;;11.80;9.00;;;13.10;96.90;;;;;;4944222;29;20036;-72
2023/04/08 09:13:49;;;;;;;13.50;9.10;;;13.20;96.10;;;;;;4928117;29;20031;-73
2023/04/08 09:16:22;;;;;;;12.15;8.20;;;13.20;95.80;;;;;;4927897;29;20038;-73
2023/04/08 09:19:15;;;;;;;10.88;8.50;;;13.30;95.80;;;;;;4943966;29;20038;-73
2023/04/08 09:21:42;;;;;;;10.93;7.97;;;13.40;95.30;;;;;;4944044;29;20269;-73
2023/04/08 09:24:39;;;;;;;11.30;8.82;;;13.30;94.60;;;;;;4945092;29;20035;-72
2023/04/08 09:27:05;;;;;;;12.10;9.05;;;13.30;94.00;;;;;;4928136;29;20115;-74
2023/04/08 09:29:33;;;;;;;13.88;9.60;;;13.40;94.00;;;;;;4944342;29;20055;-74
2023/04/08 09:32:01;;;;;;;11.43;8.65;;;13.40;93.80;;;;;;4945208;29;20091;-74
2023/04/08 09:34:32;;;;;;;;;;;13.50;93.60;;;;;;4945444;29;20031;-74
2023/04/08 09:37:01;;;;;;;11.85;8.95;;;13.60;94.10;;;;;;4944962;29;19910;-74
2023/04/08 09:40:29;;;;;;;11.98;9.38;;;13.50;93.30;;;;;;4945087;29;20091;-73
2023/04/08 09:42:57;;;;;;;11.82;8.75;;;13.70;92.30;;;;;;4906084;29;20229;-74
2023/04/08 09:45:26;;;;;;;10.65;8.70;;;13.60;92.00;;;;;;4944328;29;20082;-75
2023/04/08 09:48:11;;;;;;;12.93;9.38;;;13.90;92.10;;;;;;4944825;29;20035;-75
2023/04/08 09:50:48;;;;;;;12.02;8.75;;;14.10;90.60;;;;;;4946995;29;20043;-72
2023/04/08 09:53:26;;;;;;;10.48;8.15;;;14.50;90.10;;;;;;4948469;29;20035;-72
2023/04/08 09:55:58;;;;;;;10.57;8.43;;;14.80;90.20;;;;;;4948486;29;20229;-73
2023/04/08 09:58:51;;;;;;;11.38;8.82;;;14.90;87.40;;;;;;4944472;29;20031;-73
2023/04/08 10:01:40;;;;;;;10.13;8.18;;;15.10;83.20;;;;;;4946550;29;20035;-72
2023/04/08 10:04:19;;;;;;;11.20;9.00;;;15.20;83.20;;;;;;4909228;29;20036;-72
2023/04/08 10:06:55;;;;;;;11.43;8.40;;;15.10;81.50;;;;;;4910470;29;20254;-75
2023/04/08 10:09:21;;;;;;;12.27;8.98;;;15.60;82.00;;;;;;4909920;29;20318;-74
2023/04/08 10:11:48;;;;;;;11.32;8.52;;;15.60;80.00;;;;;;4910564;29;20032;-74
2023/04/08 10:14:13;;;;;;;10.63;8.50;;;16.00;78.90;;;;;;4910405;29;20032;-72
2023/04/08 10:16:46;;;;;;;11.00;8.95;;;15.80;78.70;;;;;;4909977;29;20040;-73
2023/04/08 10:19:41;;;;;;;10.70;8.32;;;15.80;76.20;;;;;;4909866;29;20040;-73
2023/04/08 10:22:33;;;;;;;11.38;8.82;;;15.80;77.30;;;;;;4909585;29;20218;-73
2023/04/08 10:25:17;;;;;;;12.15;9.43;;;15.60;80.30;;;;;;4909458;29;20123;-73
2023/04/08 10:27:48;;;;;;;11.57;8.95;;;15.50;78.60;;;;;;4910034;29;20032;-72
2023/04/08 10:30:38;;;;;;;12.50;8.80;;;15.20;78.80;;;;;;4909871;29;20039;-72
2023/04/08 10:33:17;;;;;;;10.77;8.48;;;15.00;79.40;;;;;;4910168;29;20056;-72
2023/04/08 10:35:56;;;;;;;10.25;8.02;;;14.70;77.70;;;;;;4908214;29;20048;-73
2023/04/08 10:38:41;;;;;;;11.57;8.80;;;14.60;79.10;;;;;;4910073;29;20029;-74
2023/04/08 10:41:12;;;;;;;11.75;8.75;;;14.50;79.80;;;;;;4909890;29;20064;-73
2023/04/08 10:43:46;;;;;;;11.68;8.80;;;14.40;79.80;;;;;;4893274;29;20040;-73
2023/04/08 10:46:21;;;;;;;10.82;8.63;;;14.20;78.90;;;;;;4908373;29;20097;-74
2023/04/08 10:49:03;;;;;;;11.63;8.55;;;14.10;78.60;;;;;;4909872;29;20032;-74
2023/04/08 10:51:34;;;;;;;10.40;8.15;;;13.90;79.80;;;;;;4909235;29;20369;-74
2023/04/08 10:54:15;;;;;;;12.13;9.40;;;13.70;80.50;;;;;;4909747;29;20033;-72
2023/04/08 10:57:00;;;;;;;15.25;8.80;;;13.40;81.40;;;;;;4893267;29;20036;-73
2023/04/08 11:00:30;;;;;;;11.82;8.32;;;13.20;82.30;;;;;;4908548;29;20035;-72
2023/04/08 11:03:00;;;;;;;12.40;8.52;;;13.30;81.80;;;;;;4933287;29;20063;-74
2023/04/08 11:05:30;;;;;;;13.05;8.80;;;13.20;80.80;;;;;;4930089;29;20024;-73
2023/04/08 11:07:56;;;;;;;12.70;8.75;;;13.10;80.20;;;;;;4946348;29;20059;-73
2023/04/08 11:10:27;;;;;;;11.23;8.88;;;13.10;80.20;;;;;;4946676;29;20039;-74
2023/04/08 11:12:54;;;;;;;9.77;8.18;;;13.00;80.10;;;;;;4946032;29;20052;-74
2023/04/08 11:15:24;;;;;;;12.18;8.05;;;12.90;80.60;;;;;;4947006;29;20044;-73
2023/04/08 11:17:50;;;;;;;13.48;8.65;;;13.00;82.40;;;;;;4946750;29;20039;-72
2023/04/08 11:20:17;;;;;;;12.88;8.77;;;13.10;81.00;;;;;;4929976;29;20069;-74
2023/04/08 11:22:50;;;;;;;14.20;7.93;;;13.20;80.20;;;;;;4945636;29;20023;-72
2023/04/08 11:25:18;;;;;;;12.07;8.00;;;13.30;77.70;;;;;;4947100;29;20039;-72
2023/04/08 11:27:48;;;;;;;10.68;8.18;;;13.40;77.20;;;;;;4945630;29;20020;-73
2023/04/08 11:30:15;;;;;;;11.13;8.52;;;13.40;78.00;;;;;;4946872;29;20024;-71
2023/04/08 11:32:44;;;;;;;11.48;8.30;;;13.50;79.50;;;;;;4930076;29;20099;-71
2023/04/08 11:35:19;;;;;;;11.95;8.38;;;13.60;80.40;;;;;;4930022;29;20023;-74
2023/04/08 11:37:46;;;;;;;11.07;8.27;;;13.50;80.20;;;;;;4944995;29;20040;-73
2023/04/08 11:40:13;;;;;;;11.25;8.25;;;13.40;80.00;;;;;;4946341;29;20221;-74
2023/04/08 11:42:39;;;;;;;10.18;7.97;;;13.30;80.70;;;;;;4946199;29;20020;-73
2023/04/08 11:45:13;;;;;;;12.60;8.20;;;13.30;80.60;;;;;;4945533;29;20035;-73
2023/04/08 11:47:39;;;;;;;11.25;7.75;;;13.30;80.60;;;;;;4944926;29;20199;-73
2023/04/08 11:50:06;;;;;;;10.73;7.72;;;13.20;80.50;;;;;;4945247;29;20072;-73
2023/04/08 11:52:42;;;;;;;10.75;8.00;;;13.30;80.70;;;;;;4944900;29;20028;-73
2023/04/08 11:55:11;;;;;;;11.20;7.97;;;13.40;81.20;;;;;;4946893;29;20070;-74
2023/04/08 11:57:37;;;;;;;12.00;8.00;;;13.40;81.40;;;;;;4945750;29;20067;-73
2023/04/08 12:00:05;;;;;;;13.05;8.20;;;13.60;82.00;;;;;;4945168;29;20035;-74
2023/04/08 12:02:37;;;;;;;13.10;8.75;;;13.60;82.20;;;;;;4944265;29;20039;-74
2023/04/08 12:05:02;;;;;;;10.73;8.50;;;13.50;81.50;;;;;;4946196;29;20027;-74
2023/04/08 12:07:28;;;;;;;12.55;8.15;;;13.40;81.50;;;;;;4944391;29;20333;-74
2023/04/08 12:09:55;;;;;;;13.10;8.27;;;13.40;81.50;;;;;;4946189;29;20103;-72
2023/04/08 12:12:21;;;;;;;10.98;8.10;;;13.30;81.80;;;;;;4929474;29;20030;-76
2023/04/08 12:14:47;;;;;;;9.38;7.82;;;13.20;82.00;;;;;;4944338;29;20032;-73
2023/04/08 12:17:13;;;;;;;10.10;7.97;;;13.10;82.50;;;;;;4945914;29;20036;-73
2023/04/08 12:19:38;;;;;;;11.55;8.32;;;13.00;82.30;;;;;;4944337;29;20032;-74
2023/04/08 12:22:04;;;;;;;11.23;8.20;;;13.00;82.50;;;;;;4945849;29;20024;-73
2023/04/08 12:24:30;;;;;;;11.75;8.00;;;13.00;82.50;;;;;;4945173;29;20094;-73
2023/04/08 12:26:56;;;;;;;12.23;8.25;;;13.10;82.10;;;;;;4946103;29;20027;-72
2023/04/08 12:29:23;;;;;;;12.25;8.68;;;13.20;82.50;;;;;;4929112;29;20326;-73
2023/04/08 12:31:48;;;;;;;12.02;7.90;;;13.20;81.60;;;;;;4944253;29;20020;-72
2023/04/08 12:34:17;;;;;;;10.82;8.25;;;13.30;82.10;;;;;;4945701;29;20031;-74
2023/04/08 12:36:43;;;;;;;12.57;7.70;;;13.40;81.10;;;;;;4928052;29;20031;-72
2023/04/08 12:39:09;;;;;;;10.77;7.85;;;13.40;80.90;;;;;;4945750;29;20024;-75
2023/04/08 12:41:35;;;;;;;10.48;7.30;;;13.30;81.10;;;;;;4928059;29;20036;-74
2023/04/08 12:44:04;;;;;;;12.05;8.02;;;13.30;82.00;;;;;;4945694;29;20071;-74
2023/04/08 12:46:30;;;;;;;10.25;8.13;;;13.40;81.80;;;;;;4960100;28;20047;-73
2023/04/08 12:48:59;;;;;;;10.57;7.85;;;13.40;81.40;;;;;;4944317;29;20317;-73
2023/04/08 12:51:28;;;;;;;10.38;7.68;;;13.50;81.20;;;;;;4945766;29;20091;-73
2023/04/08 12:53:54;;;;;;;11.48;8.27;;;13.60;81.30;;;;;;4944487;29;20046;-73
2023/04/08 12:56:20;;;;;;;10.20;7.95;;;13.60;81.20;;;;;;4945201;29;20036;-73
2023/04/08 12:58:45;;;;;;;10.82;7.97;;;13.50;81.50;;;;;;4944011;29;20028;-73
2023/04/08 13:01:11;;;;;;;10.85;7.00;;;13.50;82.00;;;;;;4944067;29;20043;-71
2023/04/08 13:03:41;;;;;;;10.63;7.32;;;13.60;81.50;;;;;;4944420;29;20075;-73
2023/04/08 13:06:15;;;;;;;10.85;7.80;;;13.80;81.50;;;;;;4945130;29;20036;-74
2023/04/08 13:08:42;;;;;;;11.05;8.48;;;13.80;82.00;;;;;;4927940;29;20023;-73
2023/04/08 13:11:08;;;;;;;9.68;7.15;;;13.80;81.60;;;;;;4928314;29;20023;-73
2023/04/08 13:13:35;;;;;;;10.65;8.40;;;13.70;82.70;;;;;;4943381;29;20046;-73
2023/04/08 13:16:02;;;;;;;10.07;7.78;;;13.80;81.40;;;;;;4928561;29;20024;-73
2023/04/08 13:18:28;;;;;;;11.10;7.53;;;13.80;81.90;;;;;;4944794;29;20119;-73
2023/04/08 13:20:54;;;;;;;11.57;8.13;;;13.60;82.70;;;;;;4945053;29;20303;-72
2023/04/08 13:23:24;;;;;;;10.60;7.90;;;13.50;82.80;;;;;;4929206;29;20023;-72
2023/04/08 13:25:50;;;;;;;9.35;7.85;;;13.60;83.10;;;;;;4933967;29;20302;-73
2023/04/08 13:28:17;;;;;;;9.15;7.60;;;13.60;83.90;;;;;;4951394;29;20055;-72
2023/04/08 13:30:43;;;;;;;10.57;7.70;;;13.70;83.50;;;;;;4949781;29;20343;-72
2023/04/08 13:33:08;;;;;;;10.38;7.70;;;13.70;83.40;;;;;;4951408;29;20039;-73
2023/04/08 13:35:34;;;;;;;9.82;7.35;;;13.60;83.80;;;;;;4934017;29;20028;-75
2023/04/08 13:38:00;;;;;;;11.35;8.20;;;13.60;84.20;;;;;;4950229;29;20050;-75
2023/04/08 13:40:26;;;;;;;9.73;7.68;;;13.60;83.80;;;;;;4950294;29;20031;-73
2023/04/08 13:42:53;;;;;;;11.30;7.57;;;13.40;84.30;;;;;;4950632;29;20035;-74
2023/04/08 13:45:19;;;;;;;9.95;8.00;;;13.30;84.50;;;;;;4934324;29;20050;-72
2023/04/08 13:47:45;;;;;;;11.75;8.82;;;13.50;84.60;;;;;;4949613;29;20027;-73
2023/04/08 13:50:11;;;;;;;11.30;8.63;;;13.60;84.60;;;;;;4951132;29;20020;-73
2023/04/08 13:52:37;;;;;;;11.27;8.15;;;13.70;83.90;;;;;;4949638;29;20209;-73
2023/04/08 13:55:03;;;;;;;10.15;7.68;;;13.70;84.50;;;;;;4951076;29;20042;-73
2023/04/08 13:57:29;;;;;;;12.05;7.95;;;13.60;83.90;;;;;;4951133;29;20024;-74
2023/04/08 13:59:55;;;;;;;9.45;7.63;;;13.60;84.10;;;;;;4949419;29;20043;-74
2023/04/08 14:02:20;;;;;;;9.35;7.70;;;13.70;84.50;;;;;;4950570;29;20303;-74
2023/04/08 14:04:46;;;;;;;10.38;8.05;;;13.60;84.00;;;;;;4950792;29;20103;-72
2023/04/08 14:07:12;;;;;;;10.73;7.72;;;13.50;84.40;;;;;;4951208;29;20037;-74
2023/04/08 14:09:38;;;;;;;10.73;8.40;;;13.60;84.70;;;;;;4949605;29;20275;-71
2023/04/08 14:12:04;;;;;;;9.02;7.57;;;13.80;84.10;;;;;;4951188;29;20031;-73
2023/04/08 14:14:30;;;;;;;9.07;7.25;;;13.90;83.40;;;;;;4949939;29;20083;-73
2023/04/08 14:16:56;;;;;;;9.68;7.35;;;14.10;83.70;;;;;;4949376;29;20114;-75
2023/04/08 14:19:22;;;;;;;10.30;7.53;;;14.40;82.50;;;;;;4950976;29;20039;-73
2023/04/08 14:21:48;;;;;;;9.32;6.93;;;14.60;82.00;;;;;;4950767;29;20316;-73
2023/04/08 14:24:14;;;;;;;8.82;7.07;;;14.60;81.60;;;;;;4950822;29;20027;-73
2023/04/08 14:26:40;;;;;;;9.75;7.65;;;14.70;82.20;;;;;;4950307;29;20095;-72
2023/04/08 14:29:06;;;;;;;10.73;8.10;;;14.70;82.30;;;;;;4951302;29;20035;-72
2023/04/08 14:31:33;;;;;;;10.13;7.25;;;14.40;82.50;;;;;;4950079;29;20044;-73
2023/04/08 14:33:59;;;;;;;9.90;7.80;;;14.20;83.10;;;;;;4951074;29;20031;-73
2023/04/08 14:36:26;;;;;;;9.23;7.35;;;14.10;83.30;;;;;;4947863;29;20046;-72
2023/04/08 14:38:54;;;;;;;8.95;6.95;;;14.20;83.60;;;;;;4930641;29;20314;-72
2023/04/08 14:41:25;;;;;;;10.23;7.40;;;14.10;84.10;;;;;;4947596;29;20035;-72
2023/04/08 14:43:51;;;;;;;9.57;7.45;;;14.10;83.60;;;;;;4946124;29;20335;-72
2023/04/08 14:46:22;;;;;;;10.35;7.35;;;14.00;83.70;;;;;;4947450;29;20075;-74
2023/04/08 14:48:48;;;;;;;10.52;7.28;;;13.90;84.00;;;;;;4946241;29;20086;-72
2023/04/08 14:51:15;;;;;;;10.02;7.00;;;13.80;84.40;;;;;;4930476;29;20058;-72
2023/04/08 14:53:41;;;;;;;8.48;6.28;;;13.70;83.50;;;;;;4947325;29;20250;-73
2023/04/08 14:56:07;;;;;;;8.13;6.30;;;13.60;82.80;;;;;;4947372;29;20040;-72
2023/04/08 14:58:33;;;;;;;8.60;6.30;;;13.50;82.20;;;;;;4947556;29;20079;-72
2023/04/08 15:00:59;;;;;;;9.00;5.93;;;13.40;82.50;;;;;;4946995;29;20047;-72
2023/04/08 15:03:26;;;;;;;8.43;5.95;;;13.30;83.00;;;;;;4946019;29;20353;-73
2023/04/08 15:06:06;;;;;;;8.02;5.75;;;13.30;83.60;;;;;;4947700;29;20214;-72
2023/04/08 15:08:46;;;;;;;8.23;5.57;;;13.20;83.80;;;;;;4946596;29;20214;-73
2023/04/08 15:11:20;;;;;;;6.97;4.95;;;13.20;83.60;;;;;;4947163;29;20028;-73
2023/04/08 15:13:46;;;;;;;7.95;5.18;;;13.00;83.90;;;;;;4946550;29;20317;-72
2023/04/08 15:16:15;;;;;;;10.02;5.43;;;12.90;84.40;;;;;;4947108;29;20034;-73
2023/04/08 15:18:41;;;;;;;9.60;5.13;;;12.80;84.60;;;;;;4946586;29;20024;-75
2023/04/08 15:21:10;;;;;;;8.75;5.50;;;12.70;84.80;;;;;;4945754;29;20336;-73
2023/04/08 15:23:40;;;;;;;8.27;5.13;;;12.90;85.00;;;;;;4946898;29;20096;-74
2023/04/08 15:26:07;;;;;;;7.45;4.95;;;12.90;85.00;;;;;;4946462;29;20027;-74
2023/04/08 15:28:33;;;;;;;7.63;4.90;;;12.90;84.80;;;;;;4945118;29;20034;-73
2023/04/08 15:31:00;;;;;;;8.23;4.60;;;12.90;85.30;;;;;;4929522;29;20317;-73
2023/04/08 15:33:26;;;;;;;7.07;4.68;;;12.90;85.30;;;;;;4946713;29;20058;-74
2023/04/08 15:35:52;;;;;;;7.10;5.07;;;12.80;85.40;;;;;;4946173;29;20309;-74
2023/04/08 15:38:19;;;;;;;6.32;4.35;;;12.70;86.10;;;;;;4929436;29;20036;-73
2023/04/08 15:40:45;;;;;;;7.32;4.20;;;12.60;86.70;;;;;;4929459;29;20042;-72
2023/04/08 15:43:14;;;;;;;6.20;4.25;;;12.50;87.40;;;;;;4946925;29;20040;-72
2023/04/08 15:45:43;;;;;;;5.85;3.85;;;12.50;87.70;;;;;;4946211;29;20091;-74
2023/04/08 15:48:12;;;;;;;6.55;4.25;;;12.40;88.70;;;;;;4944848;29;20023;-72
2023/04/08 15:50:38;;;;;;;5.18;3.33;;;12.50;88.50;;;;;;4945831;29;20042;-74
2023/04/08 15:53:06;;;;;;;4.97;3.33;;;12.40;88.70;;;;;;4946373;29;20055;-73
2023/04/08 15:55:58;;;;;;;7.07;3.80;;;12.30;89.80;;;;;;4946732;29;20039;-72
2023/04/08 15:58:24;;;;;;;5.53;3.35;;;12.20;89.80;;;;;;4944773;29;20046;-72
2023/04/08 16:00:54;;;;;;;4.97;3.60;;;12.10;90.10;;;;;;4945547;29;20027;-72
2023/04/08 16:03:20;;;;;;;6.68;3.60;;;12.20;90.30;;;;;;4944916;29;20042;-72
2023/04/08 16:05:48;;;;;;;7.93;3.85;;;12.20;90.00;;;;;;4945839;29;20055;-73
2023/04/08 16:08:15;;;;;;;6.20;4.00;;;12.30;90.00;;;;;;4944429;29;20035;-73
2023/04/08 16:10:41;;;;;;;4.93;3.30;;;12.20;89.70;;;;;;4944889;29;20024;-73
2023/04/08 16:13:07;;;;;;;4.82;3.35;;;12.20;89.70;;;;;;4929289;29;20024;-74
2023/04/08 16:15:34;;;;;;;6.93;3.80;;;12.20;90.00;;;;;;4929209;29;20061;-74
2023/04/08 16:18:01;;;;;;;5.65;3.63;;;12.20;89.70;;;;;;4945488;29;20090;-72
2023/04/08 16:20:28;;;;;;;6.85;3.40;;;12.20;89.80;;;;;;4945873;29;20086;-72
2023/04/08 16:22:54;;;;;;;4.70;3.28;;;12.30;90.00;;;;;;4945565;29;20047;-71
2023/04/08 16:25:19;;;;;;;5.53;4.00;;;12.30;90.10;;;;;;4944588;29;20098;-72
2023/04/08 16:27:46;;;;;;;6.68;3.70;;;12.10;90.10;;;;;;4945414;29;20225;-73
2023/04/08 16:30:20;;;;;;;5.38;3.75;;;12.10;90.50;;;;;;4946129;29;20050;-72
2023/04/08 16:32:49;;;;;;;6.07;4.00;;;12.00;90.60;;;;;;4945472;29;20040;-74
2023/04/08 16:35:16;;;;;;;6.30;3.83;;;11.90;90.80;;;;;;4945810;29;20054;-73
2023/04/08 16:37:45;;;;;;;6.47;4.20;;;11.90;90.90;;;;;;4928900;29;20035;-73
2023/04/08 16:40:17;;;;;;;5.47;4.15;;;11.80;91.10;;;;;;4945548;29;20094;-73
2023/04/08 16:42:46;;;;;;;5.93;4.15;;;11.70;91.30;;;;;;4945273;29;20103;-74
2023/04/08 16:45:19;;;;;;;9.10;4.57;;;11.60;91.40;;;;;;4928722;29;20083;-73
2023/04/08 16:47:47;;;;;;;6.00;4.43;;;11.50;91.70;;;;;;4928519;29;20100;-73
2023/04/08 16:50:13;;;;;;;;;;;11.40;92.00;;;;;;4944858;29;20210;-74
2023/04/08 16:52:39;;;;;;;5.55;4.15;;;11.40;92.20;;;;;;4945387;29;19906;-72
2023/04/08 16:55:06;;;;;;;5.80;4.38;;;11.30;92.30;;;;;;4928381;29;20038;-74
2023/04/08 17:00:22;;;;;;;4.43;3.38;;;11.20;92.40;;;;;;4944638;29;20063;-74
2023/04/08 17:02:47;;;;;;;6.30;4.45;;;11.20;92.70;;;;;;4943480;29;20043;-73
2023/04/08 17:08:01;;;;;;;;;;;11.10;92.90;;;;;;4935082;29;20358;-73
2023/04/08 17:10:27;;;;;;;6.45;4.28;;;11.10;93.00;;;;;;4976398;28;19910;-74
2023/04/08 17:13:42;;;;;;;5.82;4.30;;;11.10;93.10;;;;;;4927842;29;20035;-73
2023/04/08 17:16:02;;;;;;;6.80;4.40;;;11.10;93.10;;;;;;4931211;29;20055;-73
2023/04/08 17:18:53;;;;;;;5.60;3.85;;;11.00;93.10;;;;;;4923848;29;20103;-73
2023/04/08 17:21:31;;;;;;;5.63;3.85;;;11.00;93.20;;;;;;4941334;29;20039;-73
2023/04/08 17:24:03;;;;;;;6.30;3.95;;;11.00;93.30;;;;;;4944687;29;20023;-74
2023/04/08 17:26:29;;;;;;;5.07;3.60;;;11.00;93.10;;;;;;4943779;29;20075;-75
2023/04/08 17:28:54;;;;;;;5.60;3.45;;;11.00;93.20;;;;;;4943584;29;20282;-74
2023/04/08 17:31:30;;;;;;;4.75;3.78;;;11.00;93.30;;;;;;4944940;29;20055;-73
2023/04/08 17:34:12;;;;;;;6.20;4.18;;;11.00;93.50;;;;;;4927681;29;20221;-75
2023/04/08 17:36:44;;;;;;;6.05;3.85;;;11.00;93.20;;;;;;4943968;29;20368;-74
2023/04/08 17:39:13;;;;;;;5.40;4.03;;;11.00;93.40;;;;;;4928495;29;20202;-73
2023/04/08 17:41:39;;;;;;;5.20;3.78;;;11.00;93.40;;;;;;4944589;29;20066;-74
2023/04/08 17:44:17;;;;;;;7.68;4.00;;;10.90;93.50;;;;;;4944685;29;20217;-72
2023/04/08 17:46:42;;;;;;;5.63;4.13;;;10.90;93.50;;;;;;4928296;29;20084;-74
2023/04/08 17:49:13;;;;;;;5.30;3.72;;;10.80;93.60;;;;;;4944724;29;20056;-75
2023/04/08 17:51:41;;;;;;;5.53;4.10;;;10.80;93.70;;;;;;4934110;29;20333;-74
2023/04/08 17:54:19;;;;;;;6.03;4.05;;;10.70;93.80;;;;;;4943324;29;20035;-73
2023/04/08 17:56:55;;;;;;;5.95;4.00;;;10.70;94.20;;;;;;4927597;29;20020;-73
2023/04/08 17:59:22;;;;;;;6.60;4.82;;;10.70;94.20;;;;;;4943392;29;20067;-75
2023/04/08 18:01:57;;;;;;;5.75;4.45;;;10.60;94.20;;;;;;4943191;29;20106;-73
2023/04/08 18:07:11;;;;;;;7.38;5.13;;;10.50;94.20;;;;;;4931697;29;20321;-74
2023/04/08 18:09:37;;;;;;;6.35;4.80;;;10.40;94.40;;;;;;4943679;29;20038;-73
2023/04/08 18:12:11;;;;;;;6.00;5.10;;;10.40;94.50;;;;;;4931341;29;20028;-74